Esterhazy, Canada
Current Conditions -  °F | °C
As of 9:12 PM on Sunday 21 Dec 2014 (Local Time) from CYQV Reporting Station
Haze Haze  
Wind Chill: 15°   Ceiling: 300
Heat Index: 23°   Visibility: 0.75mi
Dew Point: 21°   Wind: 7mph
Humidity: 93%   Direction: 100°E
Pressure: 29.49"   Gusts: NA
Location:  50.65°N, 102.08°W
Report Text: CYQV 220312Z AUTO 10006KT 3/4SM BR VV003 M05/M06 A2949 RMK ICG SLP015
Loading
Personal Weather Stations






























Interactive Weather Map New forecast layout! Learn more

10-Day Weather Forecast

Advertisements
Track Severe Weather on mobile